createdAt,value
2022-07-31T00:00:43.611Z,15.73
2022-07-31T00:01:43.599Z,15.77
2022-07-31T00:02:43.594Z,15.75
2022-07-31T00:03:43.660Z,15.72
2022-07-31T00:04:43.576Z,15.68
2022-07-31T00:05:43.575Z,15.67
2022-07-31T00:06:43.567Z,15.72
2022-07-31T00:07:43.558Z,15.67
2022-07-31T00:08:43.595Z,15.67
2022-07-31T00:09:52.901Z,15.73
2022-07-31T00:10:44.531Z,15.76
2022-07-31T00:11:43.531Z,15.77
2022-07-31T00:12:43.514Z,15.70
2022-07-31T00:13:57.748Z,15.82
2022-07-31T00:14:44.495Z,15.65
2022-07-31T00:15:43.495Z,15.79
2022-07-31T00:16:43.484Z,15.79
2022-07-31T00:17:43.477Z,15.67
2022-07-31T00:18:43.496Z,15.77
2022-07-31T00:19:43.458Z,15.88
2022-07-31T00:20:43.454Z,15.80
2022-07-31T00:21:43.450Z,15.84
2022-07-31T00:22:43.438Z,15.86
2022-07-31T00:23:43.468Z,15.79
2022-07-31T00:24:43.422Z,15.90
2022-07-31T00:25:43.416Z,15.84
2022-07-31T00:26:43.409Z,15.77
2022-07-31T00:27:43.399Z,15.76
2022-07-31T00:28:43.425Z,15.76
2022-07-31T00:29:43.378Z,15.70
2022-07-31T00:30:43.369Z,15.86
2022-07-31T00:31:43.367Z,15.73
2022-07-31T00:32:43.355Z,15.80
2022-07-31T00:33:43.348Z,15.76
2022-07-31T00:34:43.375Z,15.82
2022-07-31T00:35:43.338Z,15.82
2022-07-31T00:36:43.329Z,15.80
2022-07-31T00:37:44.185Z,15.79
2022-07-31T00:38:43.349Z,15.79
2022-07-31T00:39:43.303Z,15.76
2022-07-31T00:40:43.293Z,15.79
2022-07-31T00:41:43.283Z,15.80
2022-07-31T00:42:43.278Z,15.86
2022-07-31T00:43:43.273Z,15.82
2022-07-31T00:44:43.293Z,15.83
2022-07-31T00:45:43.259Z,15.76
2022-07-31T00:46:43.251Z,15.82
2022-07-31T00:47:43.242Z,15.80
2022-07-31T00:48:43.238Z,15.80
2022-07-31T00:49:43.255Z,15.79
2022-07-31T00:50:43.218Z,15.75
2022-07-31T00:51:43.220Z,15.82
2022-07-31T00:52:43.201Z,15.73
2022-07-31T00:53:43.200Z,15.68
2022-07-31T00:54:43.214Z,15.65
2022-07-31T00:55:51.517Z,15.70
2022-07-31T00:56:44.177Z,15.64
2022-07-31T00:57:43.164Z,15.67
2022-07-31T00:58:43.154Z,15.75
2022-07-31T00:59:43.174Z,15.70
2022-07-31T01:00:43.201Z,15.67
2022-07-31T01:01:43.140Z,15.62
2022-07-31T01:02:46.557Z,15.64
2022-07-31T01:03:43.123Z,15.59
2022-07-31T01:04:44.556Z,15.72
2022-07-31T01:05:43.113Z,15.61
2022-07-31T01:06:43.095Z,15.72
2022-07-31T01:07:43.086Z,15.65
2022-07-31T01:08:43.083Z,15.70
2022-07-31T01:09:43.095Z,15.72
2022-07-31T01:10:43.062Z,15.73
2022-07-31T01:11:43.055Z,15.70
2022-07-31T01:12:43.048Z,15.68
2022-07-31T01:13:43.042Z,15.75
2022-07-31T01:14:43.058Z,15.72
2022-07-31T01:15:43.023Z,15.75
2022-07-31T01:16:43.019Z,15.72
2022-07-31T01:17:43.009Z,15.72
2022-07-31T01:18:43.000Z,15.76
2022-07-31T01:19:43.564Z,15.75
2022-07-31T01:20:42.985Z,15.76
2022-07-31T01:21:42.977Z,15.88
2022-07-31T01:22:42.984Z,15.75
2022-07-31T01:23:42.968Z,15.82
2022-07-31T01:24:43.977Z,15.83
2022-07-31T01:25:42.950Z,15.88
2022-07-31T01:26:42.948Z,15.83
2022-07-31T01:27:49.593Z,15.84
2022-07-31T01:28:43.916Z,15.79
2022-07-31T01:29:42.948Z,15.95
2022-07-31T01:30:42.908Z,15.90
2022-07-31T01:31:42.908Z,15.84
2022-07-31T01:32:42.893Z,15.88
2022-07-31T01:33:42.886Z,15.84
2022-07-31T01:34:42.897Z,15.98
2022-07-31T01:35:42.868Z,15.91
2022-07-31T01:36:42.865Z,15.97
2022-07-31T01:37:42.853Z,15.94
2022-07-31T01:38:45.647Z,15.97
2022-07-31T01:39:43.861Z,15.88
2022-07-31T01:40:42.832Z,15.88
2022-07-31T01:41:42.821Z,15.97
2022-07-31T01:42:42.817Z,15.94
2022-07-31T01:43:42.804Z,15.92
2022-07-31T01:44:42.821Z,15.98
2022-07-31T01:45:42.797Z,15.95
2022-07-31T01:46:42.778Z,15.94
2022-07-31T01:47:42.772Z,15.92
2022-07-31T01:48:42.765Z,15.88
2022-07-31T01:49:42.786Z,15.83
2022-07-31T01:50:44.286Z,15.95
2022-07-31T01:51:42.732Z,15.88
2022-07-31T01:52:43.730Z,15.88
2022-07-31T01:53:42.723Z,15.77
2022-07-31T01:54:42.742Z,15.91
2022-07-31T01:56:02.341Z,15.83
2022-07-31T01:56:43.708Z,15.88
2022-07-31T01:57:42.692Z,15.90
2022-07-31T01:58:42.689Z,15.94
2022-07-31T01:59:44.948Z,15.91
2022-07-31T02:00:42.690Z,16.01
2022-07-31T02:01:42.726Z,15.98
2022-07-31T02:02:43.236Z,15.98
2022-07-31T02:03:44.976Z,16.00
2022-07-31T02:04:42.660Z,15.97
2022-07-31T02:05:42.628Z,15.95
2022-07-31T02:06:42.620Z,15.92
2022-07-31T02:07:42.621Z,15.98
2022-07-31T02:08:42.606Z,15.86
2022-07-31T02:09:58.021Z,15.86
2022-07-31T02:10:44.592Z,15.95
2022-07-31T02:11:54.525Z,15.92
2022-07-31T02:12:43.576Z,15.94
2022-07-31T02:13:42.576Z,15.86
2022-07-31T02:14:42.589Z,15.80
2022-07-31T02:15:42.558Z,15.84
2022-07-31T02:16:42.546Z,15.91
2022-07-31T02:17:42.552Z,15.84
2022-07-31T02:18:42.530Z,15.97
2022-07-31T02:19:55.418Z,15.92
2022-07-31T02:20:43.514Z,15.90
2022-07-31T02:21:42.503Z,15.95
2022-07-31T02:22:42.500Z,15.97
2022-07-31T02:23:42.488Z,15.92
2022-07-31T02:24:42.507Z,15.90
2022-07-31T02:25:42.463Z,15.82
2022-07-31T02:26:43.466Z,15.84
2022-07-31T02:27:54.067Z,15.90
2022-07-31T02:28:43.449Z,15.98
2022-07-31T02:29:42.464Z,16.01
2022-07-31T02:30:42.436Z,15.92
2022-07-31T02:31:42.436Z,16.08
2022-07-31T02:32:42.418Z,16.02
2022-07-31T02:33:42.420Z,16.08
2022-07-31T02:34:42.431Z,16.00
2022-07-31T02:35:44.267Z,16.05
2022-07-31T02:36:42.389Z,16.08
2022-07-31T02:37:42.380Z,16.01
2022-07-31T02:38:42.372Z,16.04
2022-07-31T02:39:42.390Z,15.98
2022-07-31T02:40:42.445Z,15.98
2022-07-31T02:41:42.349Z,16.01
2022-07-31T02:42:42.336Z,16.00
2022-07-31T02:43:42.332Z,16.02
2022-07-31T02:44:42.330Z,16.02
2022-07-31T02:45:42.338Z,15.91
2022-07-31T02:46:42.311Z,15.98
2022-07-31T02:47:42.297Z,15.95
2022-07-31T02:48:42.296Z,15.92
2022-07-31T02:49:42.286Z,16.01
2022-07-31T02:50:42.303Z,15.95
2022-07-31T02:51:42.676Z,15.94
2022-07-31T02:52:42.253Z,15.97
2022-07-31T02:53:42.249Z,15.98
2022-07-31T02:54:42.237Z,16.00
2022-07-31T02:55:42.259Z,15.98
2022-07-31T02:56:42.223Z,16.02
2022-07-31T02:57:44.542Z,16.00
2022-07-31T02:58:42.250Z,15.90
2022-07-31T02:59:42.195Z,15.86
2022-07-31T03:00:42.262Z,15.97
2022-07-31T03:01:42.183Z,15.92
2022-07-31T03:02:42.174Z,16.00
2022-07-31T03:03:42.172Z,16.00
2022-07-31T03:04:42.159Z,15.91
2022-07-31T03:05:42.176Z,16.00
2022-07-31T03:06:42.145Z,15.97
2022-07-31T03:07:42.134Z,15.92
2022-07-31T03:08:42.128Z,15.86
2022-07-31T03:09:42.118Z,15.83
2022-07-31T03:10:42.136Z,15.88
2022-07-31T03:11:42.104Z,15.86
2022-07-31T03:12:42.099Z,15.86
2022-07-31T03:13:42.090Z,15.82
2022-07-31T03:14:42.077Z,15.80
2022-07-31T03:15:42.101Z,15.86
2022-07-31T03:16:43.081Z,15.82
2022-07-31T03:17:42.057Z,15.77
2022-07-31T03:18:42.047Z,15.82
2022-07-31T03:19:42.040Z,15.73
2022-07-31T03:20:42.058Z,15.76
2022-07-31T03:21:42.024Z,15.72
2022-07-31T03:22:42.012Z,15.67
2022-07-31T03:23:42.010Z,15.70
2022-07-31T03:24:42.007Z,15.73
2022-07-31T03:25:42.020Z,15.72
2022-07-31T03:26:41.986Z,15.65
2022-07-31T03:27:41.980Z,15.68
2022-07-31T03:28:41.971Z,15.65
2022-07-31T03:29:43.164Z,15.61
2022-07-31T03:30:41.979Z,15.58
2022-07-31T03:31:41.950Z,15.64
2022-07-31T03:32:41.942Z,15.67
2022-07-31T03:33:41.933Z,15.65
2022-07-31T03:34:41.928Z,15.58
2022-07-31T03:35:44.604Z,15.61
2022-07-31T03:36:41.907Z,15.59
2022-07-31T03:37:41.900Z,15.61
2022-07-31T03:38:44.715Z,15.54
2022-07-31T03:39:43.882Z,15.57
2022-07-31T03:40:41.906Z,15.61
2022-07-31T03:41:41.870Z,15.58
2022-07-31T03:42:41.866Z,15.57
2022-07-31T03:43:44.357Z,15.59
2022-07-31T03:44:42.845Z,15.57
2022-07-31T03:45:41.867Z,15.52
2022-07-31T03:46:41.832Z,15.57
2022-07-31T03:47:41.824Z,15.54
2022-07-31T03:48:41.816Z,15.55
2022-07-31T03:49:41.811Z,15.58
2022-07-31T03:50:41.828Z,15.54
2022-07-31T03:51:41.791Z,15.55
2022-07-31T03:52:41.785Z,15.52
2022-07-31T03:53:41.780Z,15.55
2022-07-31T03:54:41.766Z,15.57
2022-07-31T03:55:41.795Z,15.59
2022-07-31T03:56:41.753Z,15.47
2022-07-31T03:57:41.748Z,15.61
2022-07-31T03:58:41.745Z,15.54
2022-07-31T03:59:48.191Z,15.57
2022-07-31T04:00:42.750Z,15.57
2022-07-31T04:02:07.033Z,15.55
2022-07-31T04:02:42.775Z,15.70
2022-07-31T04:03:41.700Z,15.70
2022-07-31T04:04:41.691Z,15.72
2022-07-31T04:05:41.685Z,15.79
2022-07-31T04:06:41.705Z,15.82
2022-07-31T04:07:41.669Z,15.80
2022-07-31T04:08:41.668Z,15.70
2022-07-31T04:09:41.659Z,15.75
2022-07-31T04:10:41.684Z,15.82
2022-07-31T04:11:41.647Z,15.70
2022-07-31T04:12:41.637Z,15.64
2022-07-31T04:13:41.626Z,15.65
2022-07-31T04:14:41.627Z,15.62
2022-07-31T04:15:41.614Z,15.64
2022-07-31T04:16:41.633Z,15.70
2022-07-31T04:17:41.593Z,15.72
2022-07-31T04:18:41.586Z,15.72
2022-07-31T04:19:42.580Z,15.59
2022-07-31T04:20:41.571Z,15.57
2022-07-31T04:21:41.591Z,15.64
2022-07-31T04:22:41.562Z,15.58
2022-07-31T04:23:41.549Z,15.55
2022-07-31T04:24:42.542Z,15.58
2022-07-31T04:25:41.533Z,15.54
2022-07-31T04:26:41.549Z,15.58
2022-07-31T04:27:45.639Z,15.54
2022-07-31T04:28:42.510Z,15.57
2022-07-31T04:29:41.507Z,15.52
2022-07-31T04:30:41.497Z,15.59
2022-07-31T04:31:41.515Z,15.59
2022-07-31T04:32:41.477Z,15.67
2022-07-31T04:33:46.602Z,15.61
2022-07-31T04:34:42.461Z,15.68
2022-07-31T04:35:41.456Z,15.68
2022-07-31T04:36:41.473Z,15.59
2022-07-31T04:37:48.361Z,15.62
2022-07-31T04:38:42.433Z,15.82
2022-07-31T04:39:41.424Z,15.77
2022-07-31T04:40:41.416Z,15.82
2022-07-31T04:41:41.432Z,15.73
2022-07-31T04:42:41.401Z,15.80
2022-07-31T04:43:41.390Z,15.84
2022-07-31T04:44:41.388Z,15.88
2022-07-31T04:45:41.372Z,15.92
2022-07-31T04:46:41.388Z,15.94
2022-07-31T04:47:42.357Z,16.01
2022-07-31T04:48:41.402Z,16.15
2022-07-31T04:49:41.347Z,16.08
2022-07-31T04:50:41.337Z,16.09
2022-07-31T04:51:41.352Z,16.08
2022-07-31T04:52:41.321Z,16.28
2022-07-31T04:53:41.326Z,16.23
2022-07-31T04:54:41.303Z,16.26
2022-07-31T04:55:41.302Z,16.53
2022-07-31T04:56:41.316Z,17.27
2022-07-31T04:57:41.280Z,17.89
2022-07-31T04:58:41.268Z,18.10
2022-07-31T04:59:59.633Z,18.53
2022-07-31T05:00:42.255Z,19.16
2022-07-31T05:01:41.359Z,19.77
2022-07-31T05:02:41.241Z,20.37
2022-07-31T05:03:41.235Z,20.66
2022-07-31T05:04:41.230Z,21.15
2022-07-31T05:05:41.225Z,21.32
2022-07-31T05:06:41.236Z,21.69
2022-07-31T05:07:41.204Z,21.85
2022-07-31T05:08:41.198Z,22.07
2022-07-31T05:09:41.191Z,22.47
2022-07-31T05:10:41.184Z,22.83
2022-07-31T05:11:41.202Z,23.03
2022-07-31T05:12:41.168Z,23.31
2022-07-31T05:13:41.164Z,23.59
2022-07-31T05:14:41.165Z,23.86
2022-07-31T05:15:41.158Z,24.14
2022-07-31T05:16:41.175Z,24.30
2022-07-31T05:17:41.131Z,24.29
2022-07-31T05:18:41.120Z,24.73
2022-07-31T05:19:41.125Z,24.73
2022-07-31T05:20:41.128Z,24.78
2022-07-31T05:21:46.976Z,24.65
2022-07-31T05:22:42.091Z,24.73
2022-07-31T05:23:41.091Z,24.96
2022-07-31T05:24:41.075Z,25.10
2022-07-31T05:25:41.069Z,24.93
2022-07-31T05:26:41.071Z,25.01
2022-07-31T05:27:41.290Z,24.29
2022-07-31T05:28:41.049Z,24.05
2022-07-31T05:29:41.045Z,24.63
2022-07-31T05:30:41.037Z,24.96
2022-07-31T05:31:41.026Z,25.36
2022-07-31T05:32:42.046Z,25.68
2022-07-31T05:33:41.014Z,25.96
2022-07-31T05:34:41.018Z,26.36
2022-07-31T05:35:41.003Z,26.59
2022-07-31T05:36:41.030Z,26.88
2022-07-31T05:37:40.988Z,27.12
2022-07-31T05:38:40.993Z,27.15
2022-07-31T05:39:40.970Z,27.21
2022-07-31T05:40:40.962Z,27.21
2022-07-31T05:41:40.982Z,26.62
2022-07-31T05:42:40.951Z,26.38
2022-07-31T05:43:40.945Z,26.77
2022-07-31T05:44:40.954Z,26.80
2022-07-31T05:45:40.934Z,26.80
2022-07-31T05:46:40.964Z,27.07
2022-07-31T05:47:41.164Z,27.37
2022-07-31T05:48:41.905Z,27.77
2022-07-31T05:49:40.895Z,27.78
2022-07-31T05:50:40.894Z,27.26
2022-07-31T05:51:40.910Z,27.08
2022-07-31T05:52:40.879Z,26.63
2022-07-31T05:53:40.871Z,27.08
2022-07-31T05:54:40.866Z,27.33
2022-07-31T05:55:40.894Z,27.98
2022-07-31T05:56:40.874Z,28.42
2022-07-31T05:57:40.845Z,28.22
2022-07-31T05:58:40.837Z,27.85
2022-07-31T05:59:40.833Z,27.55
2022-07-31T06:00:40.823Z,27.44
2022-07-31T06:01:40.942Z,27.39
2022-07-31T06:02:40.810Z,27.29
2022-07-31T06:03:52.476Z,27.03
2022-07-31T06:04:41.795Z,27.11
2022-07-31T06:05:40.793Z,26.90
2022-07-31T06:06:40.821Z,26.93
2022-07-31T06:07:40.774Z,26.51
2022-07-31T06:08:41.777Z,25.96
2022-07-31T06:09:40.761Z,25.40
2022-07-31T06:10:40.771Z,25.17
2022-07-31T06:11:40.795Z,24.95
2022-07-31T06:12:40.740Z,24.81
2022-07-31T06:13:40.738Z,24.70
2022-07-31T06:14:40.733Z,24.58
2022-07-31T06:15:44.890Z,24.33
2022-07-31T06:16:41.738Z,24.28
2022-07-31T06:17:44.266Z,24.20
2022-07-31T06:18:40.707Z,24.16
2022-07-31T06:19:40.684Z,24.01
2022-07-31T06:20:41.691Z,24.01
2022-07-31T06:21:40.682Z,23.88
2022-07-31T06:22:40.699Z,24.02
2022-07-31T06:23:40.667Z,24.05
2022-07-31T06:24:42.516Z,24.06
2022-07-31T06:25:40.658Z,23.93
2022-07-31T06:26:40.664Z,24.02
2022-07-31T06:27:40.664Z,24.06
2022-07-31T06:28:47.450Z,24.03
2022-07-31T06:29:42.431Z,24.05
2022-07-31T06:30:40.617Z,24.16
2022-07-31T06:31:40.610Z,24.20
2022-07-31T06:32:40.628Z,24.05
2022-07-31T06:33:40.602Z,23.93
2022-07-31T06:34:41.591Z,23.84
2022-07-31T06:35:40.584Z,23.58
2022-07-31T06:36:40.573Z,23.48
2022-07-31T06:37:40.593Z,23.27
2022-07-31T06:38:40.561Z,23.43
2022-07-31T06:39:54.544Z,23.40
2022-07-31T06:40:41.546Z,23.44
2022-07-31T06:41:40.540Z,23.46
2022-07-31T06:42:40.581Z,23.55
2022-07-31T06:43:40.523Z,23.51
2022-07-31T06:44:46.095Z,23.51
2022-07-31T06:45:52.247Z,23.34
2022-07-31T06:46:48.984Z,23.32
2022-07-31T06:47:41.529Z,23.36
2022-07-31T06:48:40.487Z,23.27
2022-07-31T06:49:40.516Z,23.21
2022-07-31T06:50:40.469Z,23.27
2022-07-31T06:51:40.470Z,23.25
2022-07-31T06:52:40.480Z,23.28
2022-07-31T06:53:40.447Z,23.21
2022-07-31T06:54:40.440Z,23.15
2022-07-31T06:55:44.015Z,23.12
2022-07-31T06:56:40.427Z,23.00
2022-07-31T06:57:40.445Z,22.87
2022-07-31T06:58:40.409Z,22.87
2022-07-31T06:59:40.864Z,23.00
2022-07-31T07:00:41.407Z,22.93
2022-07-31T07:01:40.565Z,23.03
2022-07-31T07:02:40.403Z,23.08
2022-07-31T07:03:40.374Z,23.00
2022-07-31T07:05:06.029Z,23.05
2022-07-31T07:05:45.296Z,23.24
2022-07-31T07:06:41.350Z,23.32
2022-07-31T07:07:40.367Z,23.41
2022-07-31T07:08:40.336Z,23.69
2022-07-31T07:09:40.326Z,23.77
2022-07-31T07:10:40.313Z,23.91
2022-07-31T07:11:40.306Z,23.92
2022-07-31T07:12:40.333Z,23.87
2022-07-31T07:13:45.535Z,23.98
2022-07-31T07:14:41.286Z,24.08
2022-07-31T07:15:40.278Z,24.29
2022-07-31T07:16:40.275Z,24.54
2022-07-31T07:17:40.296Z,24.48
2022-07-31T07:18:40.256Z,24.57
2022-07-31T07:19:40.249Z,24.54
2022-07-31T07:20:40.241Z,24.35
2022-07-31T07:21:40.234Z,24.40
2022-07-31T07:22:40.258Z,24.45
2022-07-31T07:23:40.208Z,24.32
2022-07-31T07:24:41.212Z,24.38
2022-07-31T07:25:40.205Z,24.39
2022-07-31T07:26:40.196Z,24.48
2022-07-31T07:27:40.255Z,24.80
2022-07-31T07:28:40.184Z,25.14
2022-07-31T07:29:40.176Z,25.54
2022-07-31T07:30:40.166Z,26.03
2022-07-31T07:31:40.162Z,26.95
2022-07-31T07:32:40.150Z,27.85
2022-07-31T07:33:42.789Z,28.89
2022-07-31T07:34:40.144Z,29.38
2022-07-31T07:35:40.125Z,29.65
2022-07-31T07:36:40.123Z,29.75
2022-07-31T07:37:40.116Z,30.23
2022-07-31T07:38:40.130Z,30.23
2022-07-31T07:39:40.100Z,30.61
2022-07-31T07:40:40.099Z,31.46
2022-07-31T07:41:40.087Z,31.58
2022-07-31T07:42:40.080Z,31.70
2022-07-31T07:43:40.095Z,31.44
2022-07-31T07:44:40.056Z,31.59
2022-07-31T07:45:41.060Z,31.25
2022-07-31T07:46:40.054Z,30.75
2022-07-31T07:48:05.482Z,30.48
2022-07-31T07:48:41.063Z,30.27
2022-07-31T07:49:40.029Z,29.90
2022-07-31T07:50:40.024Z,29.63
2022-07-31T07:51:58.909Z,29.56
2022-07-31T07:52:43.841Z,29.51
2022-07-31T07:53:41.024Z,29.60
2022-07-31T07:54:40.003Z,29.24
2022-07-31T07:55:39.999Z,28.97
2022-07-31T07:56:39.986Z,28.86
2022-07-31T07:57:39.970Z,28.85
2022-07-31T07:58:40.014Z,29.05
2022-07-31T07:59:39.966Z,29.45
2022-07-31T08:00:39.955Z,29.02
2022-07-31T08:01:40.038Z,28.60
2022-07-31T08:02:39.949Z,28.20
2022-07-31T08:03:51.407Z,28.04
2022-07-31T08:04:44.640Z,28.38
2022-07-31T08:05:40.923Z,29.08
2022-07-31T08:06:39.911Z,29.08
2022-07-31T08:07:42.797Z,28.98
2022-07-31T08:08:39.931Z,28.60
2022-07-31T08:09:39.888Z,28.22
2022-07-31T08:10:39.877Z,28.00
2022-07-31T08:11:39.871Z,27.78
2022-07-31T08:12:39.867Z,27.59
2022-07-31T08:13:40.923Z,27.54
2022-07-31T08:14:39.858Z,27.37
2022-07-31T08:15:39.848Z,27.51
2022-07-31T08:16:39.838Z,27.45
2022-07-31T08:17:39.839Z,27.26
2022-07-31T08:18:39.847Z,27.17
2022-07-31T08:19:39.818Z,27.08
2022-07-31T08:20:39.805Z,26.88
2022-07-31T08:21:39.801Z,27.05
2022-07-31T08:22:39.799Z,27.03
2022-07-31T08:23:39.813Z,27.30
2022-07-31T08:24:39.784Z,27.78
2022-07-31T08:25:39.776Z,28.49
2022-07-31T08:26:39.767Z,29.56
2022-07-31T08:27:40.734Z,30.23
2022-07-31T08:28:39.775Z,30.87
2022-07-31T08:29:39.750Z,31.44
2022-07-31T08:30:39.736Z,31.42
2022-07-31T08:31:39.735Z,31.03
2022-07-31T08:32:39.735Z,31.31
2022-07-31T08:33:39.744Z,31.56
2022-07-31T08:34:42.072Z,31.96
2022-07-31T08:35:40.704Z,31.56
2022-07-31T08:36:39.701Z,31.59
2022-07-31T08:37:51.717Z,31.76
2022-07-31T08:38:40.711Z,31.29
2022-07-31T08:39:39.677Z,31.34
2022-07-31T08:40:43.442Z,31.28
2022-07-31T08:41:39.662Z,30.94
2022-07-31T08:42:39.659Z,30.51
2022-07-31T08:43:59.867Z,30.10
2022-07-31T08:44:40.642Z,29.73
2022-07-31T08:45:40.421Z,29.87
2022-07-31T08:46:40.628Z,30.10
2022-07-31T08:47:39.620Z,30.43
2022-07-31T08:48:39.637Z,30.18
2022-07-31T08:49:39.704Z,30.25
2022-07-31T08:50:39.600Z,29.95
2022-07-31T08:51:51.449Z,29.84
2022-07-31T08:52:40.585Z,29.90
2022-07-31T08:53:39.583Z,29.95
2022-07-31T08:54:39.597Z,30.12
2022-07-31T08:55:57.136Z,30.19
2022-07-31T08:56:40.566Z,29.95
2022-07-31T08:57:39.552Z,29.82
2022-07-31T08:58:40.163Z,29.82
2022-07-31T08:59:40.563Z,30.03
2022-07-31T09:00:39.569Z,29.88
2022-07-31T09:01:39.560Z,29.87
2022-07-31T09:02:39.516Z,29.76
2022-07-31T09:03:39.508Z,29.72
2022-07-31T09:04:39.528Z,29.65
2022-07-31T09:05:42.589Z,29.63
2022-07-31T09:06:39.496Z,29.63
2022-07-31T09:07:39.479Z,29.86
2022-07-31T09:08:39.562Z,29.94
2022-07-31T09:09:50.878Z,29.97
2022-07-31T09:10:40.462Z,29.87
2022-07-31T09:11:39.453Z,29.72
2022-07-31T09:12:39.453Z,29.78
2022-07-31T09:13:39.451Z,29.78
2022-07-31T09:14:39.469Z,29.65
2022-07-31T09:15:39.436Z,29.69
2022-07-31T09:16:39.422Z,29.78
2022-07-31T09:17:39.417Z,29.69
2022-07-31T09:18:40.407Z,29.56
2022-07-31T09:19:53.895Z,29.47
2022-07-31T09:20:40.400Z,29.41
2022-07-31T09:21:39.391Z,29.34
2022-07-31T09:22:39.385Z,29.14
2022-07-31T09:23:39.385Z,29.13
2022-07-31T09:24:39.840Z,29.13
2022-07-31T09:25:39.362Z,29.24
2022-07-31T09:26:39.358Z,29.32
2022-07-31T09:27:39.342Z,29.50
2022-07-31T09:28:39.338Z,29.71
2022-07-31T09:29:39.358Z,30.02
2022-07-31T09:30:56.481Z,30.32
2022-07-31T09:31:40.339Z,30.77
2022-07-31T09:32:39.320Z,31.15
2022-07-31T09:33:42.480Z,31.20
2022-07-31T09:34:41.320Z,31.15
2022-07-31T09:35:39.284Z,31.14
2022-07-31T09:36:39.292Z,31.12
2022-07-31T09:37:39.314Z,31.05
2022-07-31T09:38:39.270Z,30.75
2022-07-31T09:39:42.315Z,30.37
2022-07-31T09:40:55.291Z,30.46
2022-07-31T09:41:57.829Z,30.51
2022-07-31T09:42:45.723Z,30.27
2022-07-31T09:43:44.619Z,30.10
2022-07-31T09:44:40.253Z,29.94
2022-07-31T09:45:48.073Z,29.91
2022-07-31T09:46:40.210Z,29.86
2022-07-31T09:47:39.245Z,29.61
2022-07-31T09:48:39.198Z,29.59
2022-07-31T09:49:39.295Z,29.59
2022-07-31T09:50:39.179Z,29.49
2022-07-31T09:51:39.174Z,29.45
2022-07-31T09:52:39.170Z,29.56
2022-07-31T09:53:43.230Z,29.32
2022-07-31T09:54:40.198Z,29.08
2022-07-31T09:55:39.153Z,29.29
2022-07-31T09:56:39.137Z,29.19
2022-07-31T09:57:39.141Z,29.19
2022-07-31T09:58:39.125Z,29.13
2022-07-31T09:59:39.123Z,29.16
2022-07-31T10:00:39.208Z,29.05
2022-07-31T10:01:39.092Z,29.07
2022-07-31T10:02:40.099Z,29.17
2022-07-31T10:03:39.089Z,29.59
2022-07-31T10:04:39.084Z,29.72
2022-07-31T10:05:39.097Z,30.03
2022-07-31T10:06:39.078Z,30.27
2022-07-31T10:07:39.064Z,30.65
2022-07-31T10:08:39.059Z,30.84
2022-07-31T10:09:40.050Z,30.97
2022-07-31T10:10:39.062Z,31.02
2022-07-31T10:11:39.037Z,31.09
2022-07-31T10:12:39.031Z,31.12
2022-07-31T10:13:42.466Z,31.06
2022-07-31T10:14:39.027Z,30.96
2022-07-31T10:15:39.043Z,30.85
2022-07-31T10:16:39.005Z,31.00
2022-07-31T10:17:38.980Z,31.22
2022-07-31T10:18:42.779Z,31.47
2022-07-31T10:19:39.981Z,31.62
2022-07-31T10:20:39.007Z,31.71
2022-07-31T10:21:38.957Z,31.58
2022-07-31T10:22:38.958Z,31.51
2022-07-31T10:23:38.932Z,31.18
2022-07-31T10:24:38.928Z,31.21
2022-07-31T10:25:38.965Z,31.27
2022-07-31T10:26:59.777Z,31.39
2022-07-31T10:27:40.937Z,31.36
2022-07-31T10:28:38.910Z,31.49
2022-07-31T10:29:38.908Z,30.87
2022-07-31T10:30:39.914Z,30.72
2022-07-31T10:31:38.898Z,30.87
2022-07-31T10:32:38.869Z,31.02
2022-07-31T10:33:44.162Z,30.55
2022-07-31T10:34:40.889Z,30.23
2022-07-31T10:35:38.889Z,30.02
2022-07-31T10:36:38.841Z,29.81
2022-07-31T10:37:38.840Z,29.59
2022-07-31T10:38:38.837Z,29.49
2022-07-31T10:39:38.820Z,29.34
2022-07-31T10:40:38.838Z,29.22
2022-07-31T10:41:38.815Z,29.20
2022-07-31T10:42:38.803Z,29.27
2022-07-31T10:43:38.792Z,29.27
2022-07-31T10:44:39.088Z,29.20
2022-07-31T10:45:39.804Z,29.35
2022-07-31T10:46:38.775Z,29.39
2022-07-31T10:47:38.756Z,29.39
2022-07-31T10:48:39.763Z,29.39
2022-07-31T10:49:38.845Z,29.39
2022-07-31T10:50:38.771Z,29.49
2022-07-31T10:51:39.734Z,29.50
2022-07-31T10:52:38.735Z,29.39
2022-07-31T10:53:51.536Z,29.44
2022-07-31T10:54:39.712Z,29.56
2022-07-31T10:55:38.700Z,29.31
2022-07-31T10:56:38.815Z,29.44
2022-07-31T10:57:55.864Z,29.59
2022-07-31T10:58:39.678Z,29.75
2022-07-31T10:59:42.876Z,29.81
2022-07-31T11:00:40.697Z,29.84
2022-07-31T11:01:38.684Z,29.97
2022-07-31T11:02:39.647Z,30.35
2022-07-31T11:03:38.639Z,29.94
2022-07-31T11:04:38.637Z,30.19
2022-07-31T11:06:01.982Z,30.28
2022-07-31T11:06:39.636Z,30.35
2022-07-31T11:07:39.666Z,30.23
2022-07-31T11:08:38.613Z,30.27
2022-07-31T11:09:50.994Z,30.32
2022-07-31T11:10:39.591Z,30.48
2022-07-31T11:11:38.603Z,30.66
2022-07-31T11:12:38.576Z,30.87
2022-07-31T11:13:38.568Z,30.91
2022-07-31T11:14:38.564Z,30.92
2022-07-31T11:15:38.576Z,31.02
2022-07-31T11:16:38.576Z,31.18
2022-07-31T11:18:16.599Z,31.54
2022-07-31T11:18:39.532Z,31.77
2022-07-31T11:19:41.131Z,31.80
2022-07-31T11:20:38.524Z,32.03
2022-07-31T11:21:39.754Z,31.97
2022-07-31T11:22:39.558Z,31.90
2022-07-31T11:23:38.498Z,31.89
2022-07-31T11:24:38.495Z,31.70
2022-07-31T11:25:38.503Z,31.55
2022-07-31T11:26:41.464Z,31.33
2022-07-31T11:27:38.477Z,31.06
2022-07-31T11:28:38.464Z,31.00
2022-07-31T11:29:58.993Z,31.07
2022-07-31T11:30:39.460Z,31.55
2022-07-31T11:31:38.471Z,31.66
2022-07-31T11:32:39.269Z,31.92
2022-07-31T11:33:42.004Z,32.09
2022-07-31T11:34:38.424Z,32.19
2022-07-31T11:35:38.418Z,32.09
2022-07-31T11:36:38.431Z,31.76
2022-07-31T11:37:57.096Z,31.73
2022-07-31T11:38:39.428Z,31.65
2022-07-31T11:39:38.405Z,31.70
2022-07-31T11:40:38.385Z,31.59
2022-07-31T11:41:44.109Z,31.25
2022-07-31T11:42:39.426Z,31.25
2022-07-31T11:43:38.358Z,30.96
2022-07-31T11:44:38.361Z,30.88
2022-07-31T11:45:38.349Z,30.85
2022-07-31T11:46:38.363Z,30.78
2022-07-31T11:48:11.504Z,30.72
2022-07-31T11:48:44.902Z,30.37
2022-07-31T11:49:48.995Z,30.10
2022-07-31T11:50:39.307Z,29.94
2022-07-31T11:51:38.334Z,30.10
2022-07-31T11:52:38.287Z,29.79
2022-07-31T11:53:38.282Z,29.76
2022-07-31T11:54:38.277Z,29.78
2022-07-31T11:55:38.272Z,29.68
2022-07-31T11:56:38.288Z,29.65
2022-07-31T11:57:52.380Z,29.54
2022-07-31T11:58:39.255Z,29.79
2022-07-31T11:59:45.825Z,29.86
2022-07-31T12:00:39.255Z,29.93
2022-07-31T12:01:38.260Z,29.82
2022-07-31T12:02:38.347Z,29.91
2022-07-31T12:03:38.221Z,29.84
2022-07-31T12:04:38.207Z,29.72
2022-07-31T12:05:39.513Z,29.68
2022-07-31T12:06:38.222Z,29.90
2022-07-31T12:07:38.185Z,29.91
2022-07-31T12:08:38.163Z,29.79
2022-07-31T12:10:02.405Z,29.78
2022-07-31T12:10:39.155Z,29.91
2022-07-31T12:11:38.176Z,29.94
2022-07-31T12:12:38.148Z,30.10
2022-07-31T12:13:38.537Z,30.32
2022-07-31T12:14:38.131Z,30.46
2022-07-31T12:15:38.126Z,30.44
2022-07-31T12:16:38.145Z,30.77
2022-07-31T12:17:38.114Z,30.78
2022-07-31T12:18:38.101Z,30.87
2022-07-31T12:19:38.748Z,30.88
2022-07-31T12:20:38.083Z,30.96
2022-07-31T12:21:38.105Z,30.97
2022-07-31T12:22:38.078Z,31.06
2022-07-31T12:23:38.730Z,30.91
2022-07-31T12:24:38.059Z,30.70
2022-07-31T12:25:38.050Z,30.63
2022-07-31T12:26:38.061Z,30.48
2022-07-31T12:27:38.040Z,30.55
2022-07-31T12:28:38.029Z,30.66
2022-07-31T12:29:38.013Z,30.81
2022-07-31T12:30:38.013Z,30.70
2022-07-31T12:31:38.035Z,30.55
2022-07-31T12:32:38.001Z,30.55
2022-07-31T12:33:37.994Z,30.43
2022-07-31T12:34:37.989Z,30.44
2022-07-31T12:35:56.112Z,30.34
2022-07-31T12:36:39.000Z,30.30
2022-07-31T12:37:37.981Z,30.46
2022-07-31T12:38:44.799Z,30.37
2022-07-31T12:39:53.904Z,30.44
2022-07-31T12:40:38.953Z,30.65
2022-07-31T12:41:37.965Z,30.78
2022-07-31T12:42:41.957Z,30.99
2022-07-31T12:43:38.926Z,31.14
2022-07-31T12:44:38.915Z,31.55
2022-07-31T12:45:37.906Z,31.59
2022-07-31T12:46:37.924Z,31.93
2022-07-31T12:47:37.897Z,32.11
2022-07-31T12:48:41.095Z,32.34
2022-07-31T12:49:39.927Z,32.41
2022-07-31T12:50:37.888Z,32.38
2022-07-31T12:51:45.818Z,32.23
2022-07-31T12:52:38.874Z,32.03